Automated Weather Station

Lita, Tayabas, Quezon


Readings

as of August 06, 2016 01:00 AM
Wind Speed
1.4 mm
Rainfall Amount
0 mm
Rainfall Intensity
0 mm
Air Temperature
mm
Wind Direction
293 mm
Air Humidity
88.4 mm

Data Source: PREDICT (Advanced Science and Technology Institute)

12 HOUR DATA

PREVIOUS DATA

From
To
DateTime Wind Speed Rain Amount Rain Intensity Air Temperature Air Pressure Wind Direction Air Humidity
December 14, 2015 04:00 PM 5.1 0 mm 0 25.7 988.95 1 81.1
December 14, 2015 03:45 PM 0 0 mm 0 25.7 988.82 0 82.7
December 14, 2015 03:30 PM 6.2 0.01 mm 0 25.7 988.95 355 83.6
December 14, 2015 03:15 PM 5.4 0 mm 0 25.6 988.69 355 85
December 14, 2015 03:00 PM 5.5 0 mm 0 25.4 988.82 8 86.9
December 14, 2015 02:45 PM 4.5 0.17 mm 0 25.2 989.22 7 89.1
December 14, 2015 02:30 PM 4.7 7.02 mm 16.6 25.2 989.35 5 89.9
December 14, 2015 02:15 PM 4.5 3.99 mm 49.7 25.8 989.62 5 86.7
December 14, 2015 02:00 PM 4.5 0.01 mm 0 26.6 989.22 359 82.8
December 14, 2015 01:45 PM 3.8 0 mm 0 26.3 989.22 355 84.8
December 14, 2015 01:30 PM 4.1 0.41 mm 0 25.6 989.22 10 86.5
December 14, 2015 01:15 PM 4.3 0.21 mm 7.7 25.9 989.62 18 83.3
December 14, 2015 01:00 PM 5.6 0 mm 0 26.4 989.35 5 79.5
December 14, 2015 12:45 PM 5.4 0 mm 0 26.2 989.22 357 79.9
December 14, 2015 12:30 PM 4.6 0 mm 0 25.5 989.35 1 83.1
December 14, 2015 12:15 PM 4.5 0 mm 0 25.1 989.75 357 85.9
December 14, 2015 12:00 PM 5.2 0.18 mm 0 24.8 990.02 356 89
December 14, 2015 11:45 AM 6.1 0.01 mm 0 24.6 990.82 18 90.4
December 14, 2015 11:30 AM 4.7 2.15 mm 0 24.6 990.82 32 90.1
December 14, 2015 11:15 AM 4.5 0.25 mm 4.5 25 991.35 25 87.7
December 14, 2015 11:00 AM 6.4 0.78 mm 2.9 25.1 991.75 89 86.2
December 14, 2015 10:45 AM 5.7 0 mm 0 28.1 992.02 56 77.6
December 14, 2015 10:30 AM 6.2 0.3 mm 0 28.2 991.62 29 76.5
December 14, 2015 10:15 AM 8.2 0 mm 0 29.7 991.62 16 66.4
December 14, 2015 10:00 AM 8.3 0 mm 0 30.1 991.49 18 66.9
December 14, 2015 09:45 AM 9.5 0 mm 0 30.1 991.62 19 67.1
December 14, 2015 09:30 AM 8.6 0 mm 0 29.6 992.02 9 70.1
December 14, 2015 09:15 AM 7.2 0 mm 0 29.1 992.02 15 73
December 14, 2015 09:00 AM 9.2 0.04 mm 0 28.8 992.28 17 74.6
December 14, 2015 08:45 AM 6.5 0 mm 0 28.7 992.42 28 75.1